Time;durP1;ratioP1;P1;durP2;ratioP2;P2;SDS_P1;SDS_P2;PMS_P1;PMS_P2;Temp;Humidity;BMP_temperature;BMP_pressure;BME280_temperature;BME280_humidity;BME280_pressure;Samples;Min_cycle;Max_cycle;Signal;HPM_P1;HPM_P2
2024/01/03 00:01:23;;;;;;;2.07;1.83;;;10.10;99.90;;;;;;5050278;28;20487;-54
2024/01/03 00:03:50;;;;;;;0.90;0.90;;;10.10;99.90;;;;;;5050904;28;20448;-55
2024/01/03 00:06:18;;;;;;;1.60;0.90;;;10.10;99.90;;;;;;5054534;28;20451;-56
2024/01/03 00:08:45;;;;;;;3.20;1.80;;;10.00;99.90;;;;;;5054454;28;20527;-57
2024/01/03 00:11:19;;;;;;;0.53;0.50;;;10.10;99.90;;;;;;5054053;28;20488;-58
2024/01/03 00:14:07;;;;;;;0.83;0.83;;;10.10;99.90;;;;;;5054159;28;20456;-58
2024/01/03 00:16:38;;;;;;;0.83;0.80;;;10.00;99.90;;;;;;5048299;28;20444;-58
2024/01/03 00:19:05;;;;;;;1.57;0.90;;;10.00;99.90;;;;;;5054138;28;20841;-57
2024/01/03 00:21:35;;;;;;;2.87;0.80;;;10.00;99.90;;;;;;5054195;28;20544;-55
2024/01/03 00:24:05;;;;;;;1.17;0.70;;;10.00;99.90;;;;;;5054221;28;20841;-56
2024/01/03 00:26:35;;;;;;;1.27;0.90;;;10.00;99.90;;;;;;5054288;28;20449;-58
2024/01/03 00:29:02;;;;;;;0.90;0.90;;;9.90;99.90;;;;;;5053438;28;20536;-57
2024/01/03 00:31:38;;;;;;;0.67;0.67;;;9.90;99.90;;;;;;5053850;28;21070;-57
2024/01/03 00:34:11;;;;;;;0.60;0.60;;;9.80;99.90;;;;;;5053946;28;20454;-58
2024/01/03 00:36:39;;;;;;;0.90;0.90;;;9.80;99.90;;;;;;5054128;28;20293;-57
2024/01/03 00:39:08;;;;;;;2.37;1.00;;;9.70;99.90;;;;;;5053508;28;20861;-59
2024/01/03 00:41:35;;;;;;;0.80;0.63;;;9.70;99.90;;;;;;5052893;28;20523;-61
2024/01/03 00:44:02;;;;;;;0.83;0.83;;;9.70;99.90;;;;;;5053323;28;20944;-59
2024/01/03 00:46:29;;;;;;;0.90;0.90;;;9.60;99.90;;;;;;5053887;28;20452;-57
2024/01/03 00:48:56;;;;;;;0.97;0.87;;;9.60;99.90;;;;;;5053553;28;20449;-57
2024/01/03 00:51:23;;;;;;;0.53;0.53;;;9.60;99.90;;;;;;5103246;22;20525;-62
2024/01/03 00:53:51;;;;;;;1.15;1.05;;;9.60;99.90;;;;;;5093621;28;20445;-62
2024/01/03 00:56:18;;;;;;;2.23;1.00;;;9.50;99.90;;;;;;5093830;28;20209;-62
2024/01/03 00:58:45;;;;;;;1.75;1.65;;;9.60;99.90;;;;;;5086725;28;20440;-62
2024/01/03 01:01:12;;;;;;;0.97;0.70;;;9.60;99.90;;;;;;5088628;28;20944;-61
2024/01/03 01:03:39;;;;;;;1.37;0.80;;;9.60;99.90;;;;;;5093927;28;20450;-61
2024/01/03 01:06:07;;;;;;;0.80;0.80;;;9.60;99.90;;;;;;5093511;28;20447;-61
2024/01/03 01:08:34;;;;;;;0.70;0.70;;;9.60;99.90;;;;;;5093570;28;20454;-61
2024/01/03 01:11:02;;;;;;;0.50;0.50;;;9.60;99.90;;;;;;5093328;28;20312;-62
2024/01/03 01:13:29;;;;;;;1.23;0.67;;;9.60;99.90;;;;;;5093802;28;20448;-62
2024/01/03 01:15:56;;;;;;;0.80;0.80;;;9.60;99.90;;;;;;5092564;28;20451;-62
2024/01/03 01:18:23;;;;;;;2.47;2.27;;;9.50;99.90;;;;;;5094103;28;20197;-61
2024/01/03 01:20:50;;;;;;;1.20;0.80;;;9.60;99.90;;;;;;5092202;28;20467;-62
2024/01/03 01:23:17;;;;;;;1.05;0.65;;;9.50;99.90;;;;;;5093484;28;20450;-61
2024/01/03 01:25:44;;;;;;;1.73;0.75;;;9.50;99.90;;;;;;5093857;28;20236;-62
2024/01/03 01:28:12;;;;;;;1.40;1.30;;;9.50;99.90;;;;;;5093681;28;20721;-62
2024/01/03 01:30:38;;;;;;;1.90;0.83;;;9.60;99.90;;;;;;5093695;28;20802;-61
2024/01/03 01:33:05;;;;;;;1.60;0.80;;;9.60;99.90;;;;;;5093398;28;20534;-59
2024/01/03 01:35:32;;;;;;;0.83;0.83;;;9.60;99.90;;;;;;5093864;28;20447;-61
2024/01/03 01:38:03;;;;;;;0.80;0.70;;;9.60;99.90;;;;;;5094030;28;20455;-61
2024/01/03 01:40:30;;;;;;;0.50;0.50;;;9.60;99.90;;;;;;5094205;28;20467;-62
2024/01/03 01:42:57;;;;;;;1.40;0.70;;;9.60;99.90;;;;;;5093988;28;20474;-62
2024/01/03 01:45:25;;;;;;;1.47;0.50;;;9.60;99.90;;;;;;5093978;28;20828;-62
2024/01/03 01:47:52;;;;;;;1.88;0.73;;;9.70;99.90;;;;;;5093100;28;20449;-62
2024/01/03 01:50:20;;;;;;;2.30;0.50;;;9.70;99.90;;;;;;5093128;28;20236;-62
2024/01/03 01:52:48;;;;;;;0.50;0.50;;;9.70;99.90;;;;;;5093691;28;20934;-62
2024/01/03 01:55:16;;;;;;;1.10;0.70;;;9.70;99.90;;;;;;5093847;28;20450;-62
2024/01/03 01:57:43;;;;;;;1.33;0.70;;;9.60;99.90;;;;;;5093773;28;20445;-62
2024/01/03 02:00:12;;;;;;;1.42;0.45;;;9.60;99.90;;;;;;5093614;28;20459;-62
2024/01/03 02:02:42;;;;;;;1.37;0.30;;;9.60;99.90;;;;;;5093820;28;20292;-62
2024/01/03 02:05:10;;;;;;;0.50;0.50;;;9.50;99.90;;;;;;5093536;28;20443;-62
2024/01/03 02:07:37;;;;;;;0.50;0.40;;;9.50;99.90;;;;;;5093479;28;20961;-62
2024/01/03 02:10:04;;;;;;;3.30;0.95;;;9.50;99.90;;;;;;5093314;28;20573;-61
2024/01/03 02:12:31;;;;;;;0.87;0.80;;;9.40;99.90;;;;;;5093583;28;20204;-62
2024/01/03 02:14:58;;;;;;;1.52;1.42;;;9.40;99.90;;;;;;5093411;28;20816;-62
2024/01/03 02:17:25;;;;;;;1.03;0.40;;;9.40;99.90;;;;;;5092988;28;20295;-62
2024/01/03 02:19:53;;;;;;;1.58;0.40;;;9.30;99.90;;;;;;5093214;28;20827;-62
2024/01/03 02:22:21;;;;;;;0.73;0.50;;;9.30;99.90;;;;;;5093192;28;20215;-62
2024/01/03 02:24:48;;;;;;;1.00;0.60;;;9.30;99.90;;;;;;5093305;28;20220;-62
2024/01/03 02:27:15;;;;;;;0.50;0.30;;;9.20;99.90;;;;;;5092589;28;20450;-62
2024/01/03 02:29:41;;;;;;;0.45;0.30;;;9.20;99.90;;;;;;5092865;28;20230;-62
2024/01/03 02:32:08;;;;;;;0.40;0.40;;;9.20;99.90;;;;;;5092874;28;20582;-62
2024/01/03 02:34:35;;;;;;;0.70;0.60;;;9.20;99.90;;;;;;5092962;28;20270;-62
2024/01/03 02:37:03;;;;;;;0.65;0.63;;;9.20;99.90;;;;;;5093029;28;20231;-62
2024/01/03 02:39:31;;;;;;;0.60;0.60;;;9.20;99.90;;;;;;5092807;28;20209;-62
2024/01/03 02:41:58;;;;;;;1.00;0.70;;;9.20;99.90;;;;;;5092847;28;20236;-61
2024/01/03 02:44:27;;;;;;;1.07;0.83;;;9.20;99.90;;;;;;5092661;28;20929;-62
2024/01/03 02:46:54;;;;;;;0.50;0.50;;;9.10;99.90;;;;;;5091699;28;20507;-61
2024/01/03 02:49:21;;;;;;;1.48;0.50;;;9.20;99.90;;;;;;5091455;28;20455;-62
2024/01/03 02:51:48;;;;;;;3.72;0.57;;;9.20;99.90;;;;;;5092312;28;20229;-62
2024/01/03 02:54:14;;;;;;;1.07;0.67;;;9.20;99.90;;;;;;5091683;28;20582;-62
2024/01/03 02:56:42;;;;;;;0.80;0.60;;;9.20;99.90;;;;;;5092190;28;20443;-62
2024/01/03 02:59:09;;;;;;;1.10;0.90;;;9.10;99.90;;;;;;5090691;28;20459;-63
2024/01/03 03:01:36;;;;;;;1.65;1.25;;;9.10;99.90;;;;;;5092180;28;20232;-63
2024/01/03 03:04:04;;;;;;;1.13;0.70;;;9.10;99.90;;;;;;5092569;28;20201;-62
2024/01/03 03:06:30;;;;;;;0.93;0.93;;;9.10;99.90;;;;;;5092495;28;20636;-62
2024/01/03 03:08:57;;;;;;;1.58;0.50;;;9.10;99.90;;;;;;5092063;28;20211;-63
2024/01/03 03:11:24;;;;;;;2.05;0.95;;;9.10;99.90;;;;;;5092287;28;20228;-62
2024/01/03 03:13:52;;;;;;;1.33;0.82;;;9.10;99.90;;;;;;5092246;28;20217;-62
2024/01/03 03:16:19;;;;;;;4.47;1.00;;;9.10;99.90;;;;;;5092156;28;20197;-62
2024/01/03 03:18:46;;;;;;;3.13;0.90;;;9.10;99.90;;;;;;5092171;28;20863;-62
2024/01/03 03:21:13;;;;;;;1.50;0.88;;;9.10;99.90;;;;;;5092329;28;20471;-62
2024/01/03 03:23:40;;;;;;;1.58;1.00;;;9.00;99.90;;;;;;5092280;28;20295;-62
2024/01/03 03:26:07;;;;;;;1.60;1.33;;;9.10;99.90;;;;;;5092074;28;20205;-62
2024/01/03 03:28:34;;;;;;;1.63;0.90;;;9.10;99.90;;;;;;5092262;28;20579;-62
2024/01/03 03:31:03;;;;;;;0.90;0.90;;;9.10;99.90;;;;;;5091564;28;20582;-62
2024/01/03 03:33:30;;;;;;;2.30;2.10;;;9.10;99.90;;;;;;5092128;28;20254;-62
2024/01/03 03:35:57;;;;;;;3.42;1.58;;;9.10;99.90;;;;;;5092016;28;20445;-62
2024/01/03 03:38:24;;;;;;;6.07;2.03;;;9.10;99.90;;;;;;5091351;28;20205;-62
2024/01/03 03:40:51;;;;;;;6.80;1.07;;;9.10;99.90;;;;;;5091475;28;20221;-62
2024/01/03 03:43:17;;;;;;;4.18;1.30;;;9.20;99.90;;;;;;5091739;28;20439;-62
2024/01/03 03:45:44;;;;;;;0.87;0.70;;;9.20;99.90;;;;;;5092033;28;20205;-62
2024/01/03 03:48:12;;;;;;;2.33;1.08;;;9.20;99.90;;;;;;5091883;28;20453;-62
2024/01/03 03:50:39;;;;;;;3.78;1.23;;;9.20;99.90;;;;;;5091412;28;20232;-62
2024/01/03 03:53:10;;;;;;;1.63;0.75;;;9.20;99.90;;;;;;5091822;28;20599;-62
2024/01/03 03:55:40;;;;;;;0.80;0.77;;;9.20;99.90;;;;;;5091743;28;20307;-62
2024/01/03 03:58:07;;;;;;;1.27;1.27;;;9.20;99.90;;;;;;5091742;28;20296;-62
2024/01/03 04:00:34;;;;;;;1.33;1.02;;;9.20;99.90;;;;;;5091941;28;20225;-63
2024/01/03 04:03:05;;;;;;;5.78;1.30;;;9.20;99.90;;;;;;5091881;28;20201;-62
2024/01/03 04:05:34;;;;;;;1.57;1.00;;;9.20;99.90;;;;;;5091655;28;20205;-62
2024/01/03 04:08:01;;;;;;;1.00;0.83;;;9.20;99.90;;;;;;5091569;28;20530;-62
2024/01/03 04:10:28;;;;;;;2.50;2.35;;;9.20;99.90;;;;;;5091525;28;20567;-61
2024/01/03 04:12:55;;;;;;;1.35;0.80;;;9.20;99.90;;;;;;5091571;28;20211;-62
2024/01/03 04:15:22;;;;;;;0.93;0.93;;;9.20;99.90;;;;;;5091583;28;20197;-62
2024/01/03 04:17:49;;;;;;;1.02;1.02;;;9.10;99.90;;;;;;5091589;28;20538;-62
2024/01/03 04:20:16;;;;;;;3.50;0.97;;;9.10;99.90;;;;;;5091220;28;20873;-62
2024/01/03 04:22:45;;;;;;;1.60;1.13;;;9.10;99.90;;;;;;5091743;28;20527;-62
2024/01/03 04:25:12;;;;;;;1.45;0.90;;;9.10;99.90;;;;;;5090530;28;20205;-62
2024/01/03 04:27:39;;;;;;;1.00;1.00;;;9.10;99.90;;;;;;5091387;28;20211;-62
2024/01/03 04:30:07;;;;;;;0.55;0.55;;;9.10;99.90;;;;;;5091250;28;20225;-62
2024/01/03 04:32:34;;;;;;;1.53;0.70;;;9.00;99.90;;;;;;5091503;28;20311;-62
2024/01/03 04:35:00;;;;;;;3.47;0.90;;;9.00;99.90;;;;;;5091315;28;20538;-62
2024/01/03 04:37:28;;;;;;;1.53;0.90;;;9.00;99.90;;;;;;5091563;28;20280;-62
2024/01/03 04:39:56;;;;;;;1.38;1.27;;;9.00;99.90;;;;;;5091293;28;20450;-62
2024/01/03 04:42:23;;;;;;;1.58;0.80;;;9.00;99.90;;;;;;5091148;28;20697;-62
2024/01/03 04:44:50;;;;;;;2.70;1.23;;;9.00;99.90;;;;;;5091477;28;20204;-62
2024/01/03 04:47:17;;;;;;;4.18;1.85;;;9.00;99.90;;;;;;5091232;28;20208;-62
2024/01/03 04:49:44;;;;;;;2.47;2.20;;;9.00;99.90;;;;;;5091236;28;20201;-62
2024/01/03 04:52:11;;;;;;;2.83;2.10;;;9.00;99.90;;;;;;5094954;28;20231;-62
2024/01/03 04:54:38;;;;;;;0.80;0.80;;;9.00;99.90;;;;;;5095201;28;20523;-61
2024/01/03 04:57:06;;;;;;;1.50;0.90;;;9.00;99.90;;;;;;5094855;28;20205;-62
2024/01/03 04:59:33;;;;;;;2.20;1.38;;;9.00;99.90;;;;;;5094361;28;20526;-61
2024/01/03 05:02:00;;;;;;;3.50;1.08;;;9.00;99.90;;;;;;5094687;28;20221;-62
2024/01/03 05:04:27;;;;;;;2.38;1.30;;;8.90;99.90;;;;;;5094797;28;20207;-62
2024/01/03 05:06:54;;;;;;;3.38;1.40;;;9.00;99.90;;;;;;5094972;28;20305;-62
2024/01/03 05:09:20;;;;;;;1.38;1.27;;;9.00;99.90;;;;;;5094614;28;20219;-62
2024/01/03 05:11:47;;;;;;;2.95;1.08;;;8.90;99.90;;;;;;5094586;28;20311;-62
2024/01/03 05:14:16;;;;;;;1.13;0.73;;;8.90;99.90;;;;;;5094368;28;20288;-62
2024/01/03 05:16:42;;;;;;;0.97;0.70;;;8.90;99.90;;;;;;5094522;28;20205;-62
2024/01/03 05:19:09;;;;;;;3.55;2.45;;;8.90;99.90;;;;;;5094517;28;20538;-62
2024/01/03 05:21:36;;;;;;;1.50;0.65;;;8.90;99.90;;;;;;5094624;28;20222;-62
2024/01/03 05:24:03;;;;;;;0.75;0.70;;;8.90;99.90;;;;;;5094577;28;20201;-62
2024/01/03 05:26:30;;;;;;;1.45;0.90;;;8.90;99.90;;;;;;5094443;28;20248;-62
2024/01/03 05:28:57;;;;;;;2.47;1.35;;;8.90;99.90;;;;;;5094059;28;20844;-62
2024/01/03 05:31:25;;;;;;;1.05;0.90;;;8.90;99.90;;;;;;5094108;28;20232;-62
2024/01/03 05:33:52;;;;;;;1.63;1.00;;;8.90;99.90;;;;;;5094448;28;20651;-62
2024/01/03 05:36:18;;;;;;;2.15;1.17;;;8.90;99.90;;;;;;5094321;28;20296;-62
2024/01/03 05:38:45;;;;;;;1.33;1.20;;;8.90;99.90;;;;;;5094033;28;20212;-61
2024/01/03 05:41:12;;;;;;;2.40;0.57;;;8.80;99.90;;;;;;5094123;28;20225;-62
2024/01/03 05:43:39;;;;;;;3.53;1.42;;;8.80;99.90;;;;;;5094251;28;20205;-62
2024/01/03 05:46:06;;;;;;;3.17;1.20;;;8.90;99.90;;;;;;5094301;28;20209;-62
2024/01/03 05:48:35;;;;;;;2.95;1.25;;;8.80;99.90;;;;;;5093912;28;20215;-61
2024/01/03 05:51:02;;;;;;;1.70;1.60;;;8.90;99.90;;;;;;5093461;28;20260;-62
2024/01/03 05:53:29;;;;;;;2.00;1.07;;;8.90;99.90;;;;;;5093821;28;20209;-62
2024/01/03 05:55:56;;;;;;;3.80;1.60;;;8.80;99.90;;;;;;5093861;28;20449;-62
2024/01/03 05:58:23;;;;;;;2.17;1.42;;;8.80;99.90;;;;;;5093630;28;20690;-62
2024/01/03 06:00:50;;;;;;;3.15;1.00;;;8.80;99.90;;;;;;5093693;28;20221;-62
2024/01/03 06:03:17;;;;;;;3.38;1.52;;;8.80;99.90;;;;;;5093146;28;20305;-62
2024/01/03 06:05:45;;;;;;;2.97;2.33;;;8.80;99.90;;;;;;5093571;28;20796;-62
2024/01/03 06:08:12;;;;;;;1.48;1.33;;;8.80;99.90;;;;;;5093488;28;20455;-62
2024/01/03 06:10:38;;;;;;;2.05;1.23;;;8.80;99.90;;;;;;5093153;28;20235;-60
2024/01/03 06:13:05;;;;;;;8.95;2.33;;;8.80;99.90;;;;;;5093374;28;20225;-62
2024/01/03 06:15:33;;;;;;;2.55;1.88;;;8.80;99.90;;;;;;5093749;28;20201;-62
2024/01/03 06:18:00;;;;;;;3.80;1.10;;;8.80;99.90;;;;;;5093594;28;20205;-62
2024/01/03 06:20:26;;;;;;;5.18;2.30;;;8.80;99.90;;;;;;5093351;28;20264;-62
2024/01/03 06:22:55;;;;;;;1.20;1.10;;;8.80;99.90;;;;;;5093291;28;20707;-62
2024/01/03 06:25:21;;;;;;;6.53;1.65;;;8.80;99.90;;;;;;5093222;28;20211;-62
2024/01/03 06:27:48;;;;;;;2.33;1.48;;;8.80;99.90;;;;;;5093370;28;20204;-62
2024/01/03 06:30:15;;;;;;;2.70;1.30;;;8.80;99.90;;;;;;5093225;28;20604;-62
2024/01/03 06:32:42;;;;;;;7.47;2.25;;;8.70;99.90;;;;;;5093190;28;20570;-62
2024/01/03 06:35:09;;;;;;;5.65;1.63;;;8.70;99.90;;;;;;5093021;28;20296;-62
2024/01/03 06:37:36;;;;;;;4.90;1.80;;;8.70;99.90;;;;;;5093056;28;20620;-62
2024/01/03 06:40:05;;;;;;;2.40;1.15;;;8.80;99.90;;;;;;5091890;28;20292;-62
2024/01/03 06:42:32;;;;;;;1.98;1.27;;;8.80;99.90;;;;;;5090508;28;20276;-62
2024/01/03 06:44:59;;;;;;;3.90;1.92;;;8.80;99.90;;;;;;5091399;28;20203;-62
2024/01/03 06:47:26;;;;;;;2.30;2.08;;;8.80;99.90;;;;;;5091892;28;20557;-62
2024/01/03 06:49:53;;;;;;;1.60;1.50;;;8.80;99.90;;;;;;5091541;28;20197;-62
2024/01/03 06:52:19;;;;;;;2.03;1.42;;;8.80;99.90;;;;;;5068871;22;21007;-59
2024/01/03 06:54:46;;;;;;;3.77;1.63;;;8.80;99.90;;;;;;5052303;28;20225;-59
2024/01/03 06:57:14;;;;;;;2.72;2.10;;;8.80;99.90;;;;;;5052219;28;20441;-55
2024/01/03 06:59:41;;;;;;;7.13;2.10;;;8.80;99.90;;;;;;5052144;28;20206;-56
2024/01/03 07:02:08;;;;;;;3.55;1.88;;;8.80;99.90;;;;;;5052201;28;20222;-58
2024/01/03 07:04:35;;;;;;;5.22;1.95;;;8.80;99.90;;;;;;5052239;28;20209;-56
2024/01/03 07:07:02;;;;;;;7.90;1.63;;;8.80;99.90;;;;;;5046015;28;20206;-58
2024/01/03 07:09:29;;;;;;;2.35;1.40;;;8.80;99.90;;;;;;5041771;28;20194;-57
2024/01/03 07:11:55;;;;;;;15.85;11.20;;;8.80;99.90;;;;;;5037571;28;20233;-57
2024/01/03 07:14:24;;;;;;;11.00;5.25;;;8.80;99.90;;;;;;5037602;28;20204;-58
2024/01/03 07:16:50;;;;;;;9.02;2.90;;;8.80;99.90;;;;;;5052060;28;20603;-62
2024/01/03 07:19:17;;;;;;;5.95;2.35;;;8.90;99.90;;;;;;5051806;28;20214;-57
2024/01/03 07:21:44;;;;;;;4.72;1.73;;;9.00;99.90;;;;;;5051769;28;20309;-56
2024/01/03 07:24:11;;;;;;;11.10;2.25;;;9.00;99.90;;;;;;5052089;28;20207;-59
2024/01/03 07:26:38;;;;;;;4.27;1.63;;;9.00;99.90;;;;;;5051951;28;20218;-57
2024/01/03 07:29:04;;;;;;;3.53;2.10;;;9.10;99.90;;;;;;5051550;28;20455;-57
2024/01/03 07:31:33;;;;;;;2.27;1.90;;;9.10;99.90;;;;;;5051575;28;20473;-58
2024/01/03 07:33:59;;;;;;;2.15;1.30;;;9.10;99.90;;;;;;5051669;28;20455;-56
2024/01/03 07:36:26;;;;;;;5.07;1.60;;;9.10;99.90;;;;;;5051525;28;20300;-59
2024/01/03 07:38:54;;;;;;;3.00;1.10;;;9.20;99.90;;;;;;5051610;28;20202;-58
2024/01/03 07:41:21;;;;;;;1.93;1.40;;;9.20;99.90;;;;;;5051568;28;20484;-57
2024/01/03 07:43:48;;;;;;;3.27;1.67;;;9.30;99.90;;;;;;5051584;28;20439;-58
2024/01/03 07:46:16;;;;;;;2.10;1.77;;;9.20;99.90;;;;;;5051585;28;20445;-54
2024/01/03 07:48:44;;;;;;;5.27;1.77;;;9.30;99.90;;;;;;5051177;28;20673;-57
2024/01/03 07:51:12;;;;;;;7.53;2.00;;;9.30;99.90;;;;;;5051363;28;20479;-54
2024/01/03 07:53:39;;;;;;;4.30;1.50;;;9.40;99.90;;;;;;5051218;28;20579;-58
2024/01/03 07:56:08;;;;;;;6.70;2.10;;;9.40;99.90;;;;;;5051507;28;20202;-57
2024/01/03 07:58:35;;;;;;;5.97;1.77;;;9.30;99.90;;;;;;5051334;28;20453;-55
2024/01/03 08:01:02;;;;;;;3.00;1.67;;;9.40;99.90;;;;;;5051039;28;20600;-55
2024/01/03 08:03:29;;;;;;;6.20;1.40;;;9.40;99.90;;;;;;5051365;28;20532;-58
2024/01/03 08:05:57;;;;;;;4.23;1.77;;;9.40;99.90;;;;;;5051194;28;20445;-57
2024/01/03 08:08:24;;;;;;;4.00;1.13;;;9.40;99.90;;;;;;5051374;28;20482;-59
2024/01/03 08:10:51;;;;;;;2.10;1.43;;;9.50;99.90;;;;;;5050705;28;20471;-59
2024/01/03 08:13:17;;;;;;;2.47;1.30;;;9.50;99.90;;;;;;5021223;28;21104;-57
2024/01/03 08:15:44;;;;;;;1.40;1.30;;;9.60;99.90;;;;;;5030903;28;20450;-56
2024/01/03 08:18:11;;;;;;;4.45;1.30;;;9.60;99.90;;;;;;5031060;28;20954;-58
2024/01/03 08:20:38;;;;;;;5.03;1.50;;;9.60;99.90;;;;;;5030859;28;20251;-59
2024/01/03 08:23:06;;;;;;;2.60;2.13;;;9.60;99.90;;;;;;5030950;28;20450;-57
2024/01/03 08:25:33;;;;;;;2.97;1.63;;;9.60;99.90;;;;;;5032500;28;20909;-58
2024/01/03 08:28:00;;;;;;;4.10;1.30;;;9.60;99.90;;;;;;5034966;28;20461;-54
2024/01/03 08:30:27;;;;;;;2.28;1.27;;;9.60;99.90;;;;;;5034605;28;20448;-57
2024/01/03 08:32:54;;;;;;;3.20;1.75;;;9.60;99.90;;;;;;5035101;28;20237;-55
2024/01/03 08:35:21;;;;;;;1.20;1.10;;;9.60;99.90;;;;;;5034986;28;20211;-56
2024/01/03 08:37:48;;;;;;;4.28;1.98;;;9.60;99.90;;;;;;5034882;28;20454;-55
2024/01/03 08:40:16;;;;;;;4.33;1.07;;;9.60;99.90;;;;;;5034403;28;20229;-55
2024/01/03 08:42:43;;;;;;;2.50;1.47;;;9.60;99.90;;;;;;5034715;28;20445;-57
2024/01/03 08:45:10;;;;;;;4.57;1.70;;;9.60;99.90;;;;;;5034549;28;20441;-56
2024/01/03 08:47:37;;;;;;;1.47;1.13;;;9.60;99.90;;;;;;5034596;28;20985;-57
2024/01/03 08:50:04;;;;;;;4.85;1.38;;;9.60;99.90;;;;;;5034693;28;20453;-56
2024/01/03 08:52:31;;;;;;;2.10;1.50;;;9.60;99.90;;;;;;5033882;28;20227;-57
2024/01/03 08:54:59;;;;;;;4.13;1.10;;;9.60;99.90;;;;;;5035204;28;20541;-59
2024/01/03 08:57:27;;;;;;;5.10;1.92;;;9.60;99.90;;;;;;5033963;28;20666;-54
2024/01/03 08:59:54;;;;;;;2.23;1.67;;;9.50;99.90;;;;;;5032458;28;20225;-59
2024/01/03 09:02:21;;;;;;;5.20;2.60;;;9.60;99.90;;;;;;5033568;28;20843;-59
2024/01/03 09:04:48;;;;;;;3.83;1.33;;;9.60;99.90;;;;;;5025068;28;20489;-59
2024/01/03 09:07:14;;;;;;;4.57;2.97;;;9.50;99.90;;;;;;5024268;28;20822;-58
2024/01/03 09:09:41;;;;;;;4.63;2.20;;;9.50;99.90;;;;;;5032072;28;20445;-59
2024/01/03 09:12:08;;;;;;;2.90;1.47;;;9.60;99.90;;;;;;5032955;28;20320;-57
2024/01/03 09:14:36;;;;;;;2.70;1.73;;;9.60;99.90;;;;;;5033841;28;20442;-60
2024/01/03 09:17:04;;;;;;;1.37;1.00;;;9.60;99.90;;;;;;5030831;28;20441;-57
2024/01/03 09:19:30;;;;;;;3.10;1.50;;;9.60;99.90;;;;;;5030099;28;20442;-57
2024/01/03 09:21:59;;;;;;;1.40;1.30;;;9.60;99.90;;;;;;5033762;28;20476;-56
2024/01/03 09:24:27;;;;;;;3.03;1.20;;;9.60;99.90;;;;;;5033237;28;20448;-55
2024/01/03 09:26:54;;;;;;;2.70;1.50;;;9.60;99.90;;;;;;5033686;28;20811;-58
2024/01/03 09:29:20;;;;;;;2.60;1.50;;;9.60;99.90;;;;;;5033234;28;20554;-58
2024/01/03 09:31:48;;;;;;;14.23;2.63;;;9.60;99.90;;;;;;5033294;28;20457;-58
2024/01/03 09:34:15;;;;;;;9.43;1.67;;;9.60;99.90;;;;;;5033219;28;20494;-59
2024/01/03 09:36:42;;;;;;;3.70;2.38;;;9.60;99.90;;;;;;5032369;28;20504;-57
2024/01/03 09:39:09;;;;;;;2.33;1.45;;;9.50;99.90;;;;;;5032496;28;20203;-58
2024/01/03 09:41:37;;;;;;;8.85;1.88;;;9.50;99.90;;;;;;5033649;28;20311;-56
2024/01/03 09:44:05;;;;;;;1.92;1.45;;;9.50;99.90;;;;;;5033059;28;20199;-58
2024/01/03 09:46:32;;;;;;;3.07;1.67;;;9.50;99.90;;;;;;5033285;28;20214;-58
2024/01/03 09:49:00;;;;;;;2.57;1.17;;;9.50;99.90;;;;;;5025668;28;20502;-56
2024/01/03 09:51:27;;;;;;;6.78;1.60;;;9.50;99.90;;;;;;5032422;28;20474;-57
2024/01/03 09:53:55;;;;;;;2.88;1.90;;;9.50;99.90;;;;;;5032781;28;20789;-60
2024/01/03 09:56:22;;;;;;;3.17;2.80;;;9.50;99.90;;;;;;5033183;28;20655;-60
2024/01/03 09:58:48;;;;;;;1.65;1.15;;;9.60;99.90;;;;;;5032868;28;20290;-59
2024/01/03 10:01:15;;;;;;;3.13;1.50;;;9.70;99.90;;;;;;5032896;28;20229;-58
2024/01/03 10:03:42;;;;;;;2.80;2.03;;;9.70;99.90;;;;;;5032489;28;20199;-58
2024/01/03 10:06:13;;;;;;;5.80;2.00;;;9.80;99.90;;;;;;5032348;28;20452;-60
2024/01/03 10:08:40;;;;;;;3.00;2.07;;;9.70;99.90;;;;;;5032165;28;20484;-54
2024/01/03 10:11:20;;;;;;;4.00;1.60;;;9.70;99.90;;;;;;5032037;28;20988;-56
2024/01/03 10:13:48;;;;;;;5.33;1.60;;;9.70;99.90;;;;;;5029023;28;20568;-55
2024/01/03 10:16:23;;;;;;;1.90;1.33;;;9.70;99.90;;;;;;5032433;28;20450;-55
2024/01/03 10:19:09;;;;;;;1.63;1.52;;;9.70;99.90;;;;;;5032024;28;20441;-59
2024/01/03 10:21:38;;;;;;;1.73;1.50;;;9.60;99.90;;;;;;5032489;28;20230;-59
2024/01/03 10:24:07;;;;;;;3.17;1.30;;;9.60;99.90;;;;;;5032771;28;20453;-56
2024/01/03 10:26:35;;;;;;;2.33;1.63;;;9.60;99.90;;;;;;5032035;28;20450;-60
2024/01/03 10:29:12;;;;;;;4.65;2.35;;;9.50;99.90;;;;;;5031864;28;20218;-59
2024/01/03 10:31:38;;;;;;;2.53;1.37;;;9.50;99.90;;;;;;5025396;28;20226;-60
2024/01/03 10:34:05;;;;;;;1.40;1.30;;;9.50;99.90;;;;;;5031934;28;20576;-56
2024/01/03 10:36:34;;;;;;;3.10;2.27;;;9.50;99.90;;;;;;5031996;28;20207;-58
2024/01/03 10:39:04;;;;;;;1.90;1.70;;;9.50;99.90;;;;;;5032008;28;20463;-57
2024/01/03 10:41:31;;;;;;;8.33;4.53;;;9.40;99.90;;;;;;5032075;28;20304;-57
2024/01/03 10:44:00;;;;;;;1.40;1.37;;;9.50;99.90;;;;;;5019182;28;20450;-58
2024/01/03 10:46:28;;;;;;;2.90;2.60;;;9.50;99.90;;;;;;5031847;28;20442;-52
2024/01/03 10:48:55;;;;;;;2.23;1.40;;;9.60;99.90;;;;;;5031634;28;20454;-59
2024/01/03 10:51:23;;;;;;;4.27;1.67;;;9.60;99.90;;;;;;5031721;28;20869;-54
2024/01/03 10:53:52;;;;;;;3.43;2.47;;;9.70;99.90;;;;;;5031674;28;21237;-58
2024/01/03 10:56:21;;;;;;;1.40;1.10;;;9.80;99.90;;;;;;5031584;28;20442;-57
2024/01/03 10:58:49;;;;;;;2.07;1.77;;;9.90;99.90;;;;;;5031677;28;20449;-55
2024/01/03 11:01:20;;;;;;;2.47;1.07;;;10.10;99.90;;;;;;5032097;28;20466;-55
2024/01/03 11:03:57;;;;;;;6.53;1.23;;;10.20;99.90;;;;;;5031749;28;20446;-58
2024/01/03 11:06:31;;;;;;;4.10;1.80;;;10.30;99.90;;;;;;5031174;28;20540;-57
2024/01/03 11:08:59;;;;;;;1.80;1.20;;;10.40;99.90;;;;;;5027129;28;20450;-57
2024/01/03 11:11:31;;;;;;;1.00;1.00;;;10.40;99.90;;;;;;5031437;28;20549;-56
2024/01/03 11:13:58;;;;;;;2.90;1.00;;;10.50;99.90;;;;;;5031581;28;20572;-56
2024/01/03 11:16:36;;;;;;;2.50;1.40;;;10.60;99.90;;;;;;5031536;28;20447;-57
2024/01/03 11:19:04;;;;;;;1.80;1.13;;;10.70;99.90;;;;;;5030798;28;20454;-58
2024/01/03 11:21:45;;;;;;;1.57;0.77;;;10.80;99.90;;;;;;5031221;28;20988;-55
2024/01/03 11:24:54;;;;;;;3.13;1.53;;;10.80;99.90;;;;;;5031595;28;20524;-56
2024/01/03 11:27:23;;;;;;;4.27;2.00;;;10.80;99.90;;;;;;5031279;28;20460;-58
2024/01/03 11:29:53;;;;;;;1.53;1.17;;;10.90;99.90;;;;;;5031082;28;20857;-54
2024/01/03 11:32:31;;;;;;;4.27;1.90;;;11.00;99.90;;;;;;5031404;28;20473;-55
2024/01/03 11:34:59;;;;;;;4.30;3.90;;;11.10;99.90;;;;;;5031255;28;20492;-58
2024/01/03 11:37:32;;;;;;;4.10;1.40;;;11.10;99.90;;;;;;5031057;28;20450;-54
2024/01/03 11:39:59;;;;;;;1.67;0.77;;;11.20;99.90;;;;;;5031156;28;20851;-59
2024/01/03 11:42:30;;;;;;;1.27;0.93;;;11.20;99.90;;;;;;5031179;28;20462;-58
2024/01/03 11:45:02;;;;;;;1.77;0.77;;;11.10;99.90;;;;;;5031444;28;20450;-57
2024/01/03 11:47:30;;;;;;;1.40;1.30;;;11.10;99.90;;;;;;5031067;28;20456;-58
2024/01/03 11:49:57;;;;;;;1.40;0.80;;;11.00;99.90;;;;;;5031314;28;20512;-56
2024/01/03 11:52:24;;;;;;;1.60;0.80;;;11.00;99.90;;;;;;5030913;28;20830;-58
2024/01/03 11:54:51;;;;;;;1.13;1.00;;;10.90;99.90;;;;;;5031315;28;21033;-56
2024/01/03 11:57:21;;;;;;;3.53;0.83;;;10.90;99.90;;;;;;5029902;28;20454;-58
2024/01/03 11:59:57;;;;;;;2.17;1.17;;;10.80;99.90;;;;;;5029826;28;20462;-55
2024/01/03 12:02:24;;;;;;;2.60;0.93;;;10.80;99.90;;;;;;5019330;28;20472;-59
2024/01/03 12:04:59;;;;;;;3.53;1.00;;;10.80;99.90;;;;;;5027438;28;20441;-58
2024/01/03 12:07:27;;;;;;;1.87;1.70;;;10.80;99.90;;;;;;5037315;28;20940;-60
2024/01/03 12:09:55;;;;;;;4.07;0.97;;;11.00;99.90;;;;;;5030010;28;20442;-59
2024/01/03 12:12:22;;;;;;;1.43;0.73;;;11.00;99.90;;;;;;5029798;28;20548;-60
2024/01/03 12:14:52;;;;;;;1.47;1.10;;;11.10;99.90;;;;;;5030599;28;20493;-54
2024/01/03 12:17:25;;;;;;;1.50;1.40;;;11.10;99.90;;;;;;5030368;28;20465;-58
2024/01/03 12:19:52;;;;;;;5.03;2.67;;;11.20;99.90;;;;;;5029964;28;20442;-58
2024/01/03 12:22:23;;;;;;;4.90;1.30;;;11.20;99.90;;;;;;5032598;28;20477;-57
2024/01/03 12:24:50;;;;;;;1.70;0.80;;;11.40;99.90;;;;;;5030725;28;20440;-57
2024/01/03 12:27:22;;;;;;;1.10;0.97;;;11.60;99.90;;;;;;5030181;28;20516;-57
2024/01/03 12:29:49;;;;;;;2.83;1.10;;;11.80;99.90;;;;;;5029744;28;20450;-60
2024/01/03 12:32:18;;;;;;;2.03;1.00;;;11.90;99.90;;;;;;5030171;28;20864;-56
2024/01/03 12:34:47;;;;;;;6.27;1.53;;;11.90;99.90;;;;;;5030481;28;20537;-57
2024/01/03 12:37:14;;;;;;;3.57;2.20;;;11.80;99.90;;;;;;5026998;28;20453;-56
2024/01/03 12:39:41;;;;;;;3.30;2.20;;;11.80;99.90;;;;;;5030166;28;20438;-59
2024/01/03 12:42:09;;;;;;;3.60;3.40;;;11.70;99.90;;;;;;5029678;28;20487;-58
2024/01/03 12:44:36;;;;;;;1.83;1.50;;;11.60;99.90;;;;;;5024993;28;20446;-56
2024/01/03 12:47:05;;;;;;;2.83;1.63;;;11.50;99.90;;;;;;5029590;28;20454;-55
2024/01/03 12:49:34;;;;;;;5.13;1.97;;;11.40;99.90;;;;;;5030404;28;20465;-57
2024/01/03 12:52:02;;;;;;;2.63;1.40;;;11.30;99.90;;;;;;5075307;22;20495;-62
2024/01/03 12:54:29;;;;;;;2.20;1.00;;;11.20;99.90;;;;;;5069887;28;20480;-61
2024/01/03 12:56:56;;;;;;;2.07;1.17;;;11.10;99.90;;;;;;5068882;28;20547;-62
2024/01/03 12:59:23;;;;;;;4.83;2.00;;;11.20;99.90;;;;;;5068715;28;20483;-62